createdAt,value
2023-02-11T00:00:21.904Z,90.85
2023-02-11T00:02:48.462Z,90.56
2023-02-11T00:05:15.577Z,90.45
2023-02-11T00:07:42.212Z,90.38
2023-02-11T00:10:09.114Z,90.45
2023-02-11T00:12:36.316Z,90.70
2023-02-11T00:15:03.282Z,90.37
2023-02-11T00:17:29.945Z,90.54
2023-02-11T00:19:56.584Z,90.25
2023-02-11T00:22:23.555Z,90.56
2023-02-11T00:24:50.163Z,90.43
2023-02-11T00:27:16.707Z,90.77
2023-02-11T00:29:43.308Z,90.59
2023-02-11T00:32:10.711Z,90.47
2023-02-11T00:34:38.277Z,90.97
2023-02-11T00:37:05.453Z,90.46
2023-02-11T00:39:32.262Z,90.61
2023-02-11T00:41:59.284Z,90.66
2023-02-11T00:44:25.883Z,90.27
2023-02-11T00:46:52.437Z,90.56
2023-02-11T00:49:19.178Z,90.73
2023-02-11T00:51:45.747Z,90.55
2023-02-11T00:54:12.377Z,90.49
2023-02-11T00:56:38.960Z,90.39
2023-02-11T00:59:05.496Z,90.82
2023-02-11T01:01:32.100Z,90.63
2023-02-11T01:03:58.774Z,90.56
2023-02-11T01:06:25.381Z,90.89
2023-02-11T01:08:52.069Z,91.32
2023-02-11T01:11:20.854Z,90.76
2023-02-11T01:13:49.285Z,90.50
2023-02-11T01:16:17.261Z,91.27
2023-02-11T01:18:44.366Z,90.22
2023-02-11T01:21:11.662Z,90.74
2023-02-11T01:23:38.382Z,91.09
2023-02-11T01:26:05.905Z,91.00
2023-02-11T01:28:33.290Z,90.77
2023-02-11T01:31:01.073Z,91.34
2023-02-11T01:33:27.672Z,91.22
2023-02-11T01:35:54.449Z,91.05
2023-02-11T01:38:26.297Z,91.28
2023-02-11T01:41:03.687Z,91.17
2023-02-11T01:43:41.286Z,91.03
2023-02-11T01:46:26.372Z,91.30
2023-02-11T01:49:09.657Z,91.46
2023-02-11T01:51:49.630Z,91.41
2023-02-11T01:54:42.841Z,91.34
2023-02-11T01:57:24.619Z,91.37
2023-02-11T02:00:11.525Z,91.42
2023-02-11T02:03:08.157Z,91.43
2023-02-11T02:06:22.325Z,91.85
2023-02-11T02:09:01.730Z,91.37
2023-02-11T02:11:28.324Z,91.61
2023-02-11T02:13:55.047Z,91.25
2023-02-11T02:16:29.378Z,91.14
2023-02-11T02:19:24.687Z,91.20
2023-02-11T02:22:33.231Z,91.76
2023-02-11T02:25:22.735Z,91.52
2023-02-11T02:28:18.024Z,91.38
2023-02-11T02:30:59.167Z,91.45
2023-02-11T02:33:41.291Z,91.58
2023-02-11T02:36:21.176Z,91.19
2023-02-11T02:39:05.688Z,91.53
2023-02-11T02:41:35.899Z,91.73
2023-02-11T02:44:02.595Z,91.81
2023-02-11T02:46:32.314Z,91.43
2023-02-11T02:49:00.037Z,92.05
2023-02-11T02:52:01.965Z,91.89
2023-02-11T02:55:07.195Z,91.91
2023-02-11T02:57:45.724Z,91.72
2023-02-11T03:00:29.704Z,92.29
2023-02-11T03:03:34.776Z,92.48
2023-02-11T03:06:25.126Z,91.73
2023-02-11T03:09:00.837Z,91.95
2023-02-11T03:11:29.170Z,92.30
2023-02-11T03:13:58.164Z,92.12
2023-02-11T03:16:28.966Z,91.98
2023-02-11T03:19:19.778Z,92.05
2023-02-11T03:21:47.259Z,91.99
2023-02-11T03:24:25.926Z,92.34
2023-02-11T03:27:01.537Z,92.30
2023-02-11T03:29:39.061Z,92.51
2023-02-11T03:32:25.332Z,92.83
2023-02-11T03:35:14.469Z,93.07
2023-02-11T03:37:51.405Z,93.23
2023-02-11T03:40:29.600Z,92.62
2023-02-11T03:43:08.675Z,92.81
2023-02-11T03:45:38.440Z,92.57
2023-02-11T03:48:25.826Z,92.99
2023-02-11T03:50:56.111Z,92.51
2023-02-11T03:53:23.007Z,92.23
2023-02-11T03:55:53.995Z,93.04
2023-02-11T03:58:20.849Z,93.20
2023-02-11T04:00:47.445Z,93.33
2023-02-11T04:03:14.474Z,92.70
2023-02-11T04:05:41.113Z,92.96
2023-02-11T04:08:08.285Z,93.48
2023-02-11T04:10:35.088Z,93.20
2023-02-11T04:13:01.736Z,93.26
2023-02-11T04:15:28.273Z,93.52
2023-02-11T04:17:54.871Z,92.74
2023-02-11T04:20:21.438Z,93.60
2023-02-11T04:22:48.254Z,93.07
2023-02-11T04:25:14.842Z,93.19
2023-02-11T04:27:41.368Z,93.16
2023-02-11T04:30:08.747Z,93.11
2023-02-11T04:32:35.332Z,93.27
2023-02-11T04:35:02.827Z,93.60
2023-02-11T04:37:29.473Z,93.04
2023-02-11T04:39:55.986Z,93.67
2023-02-11T04:42:22.543Z,93.51
2023-02-11T04:44:49.102Z,92.97
2023-02-11T04:47:15.823Z,93.53
2023-02-11T04:49:42.452Z,93.48
2023-02-11T04:52:09.065Z,93.59
2023-02-11T04:54:35.612Z,93.89
2023-02-11T04:57:02.610Z,93.38
2023-02-11T04:59:29.563Z,92.96
2023-02-11T05:01:56.155Z,93.57
2023-02-11T05:04:23.901Z,93.25
2023-02-11T05:06:50.600Z,93.32
2023-02-11T05:09:17.758Z,93.85
2023-02-11T05:11:44.490Z,93.34
2023-02-11T05:14:11.041Z,93.87
2023-02-11T05:16:37.661Z,93.26
2023-02-11T05:19:04.633Z,93.73
2023-02-11T05:21:31.314Z,93.59
2023-02-11T05:23:58.254Z,93.81
2023-02-11T05:26:25.646Z,93.50
2023-02-11T05:28:52.277Z,93.65
2023-02-11T05:31:18.935Z,93.60
2023-02-11T05:33:45.764Z,93.97
2023-02-11T05:36:13.686Z,93.94
2023-02-11T05:38:42.408Z,94.10
2023-02-11T05:41:09.661Z,93.92
2023-02-11T05:43:36.639Z,93.88
2023-02-11T05:46:04.405Z,93.59
2023-02-11T05:48:31.540Z,94.24
2023-02-11T05:50:58.655Z,93.49
2023-02-11T05:53:25.322Z,94.07
2023-02-11T05:55:52.216Z,93.61
2023-02-11T05:58:19.058Z,93.64
2023-02-11T06:00:45.644Z,93.68
2023-02-11T06:03:12.430Z,93.92
2023-02-11T06:05:39.079Z,93.65
2023-02-11T06:08:05.695Z,93.82
2023-02-11T06:10:32.209Z,93.87
2023-02-11T06:12:58.807Z,93.87
2023-02-11T06:15:25.349Z,93.81
2023-02-11T06:17:52.342Z,94.25
2023-02-11T06:20:19.405Z,93.64
2023-02-11T06:22:46.682Z,94.39
2023-02-11T06:25:13.534Z,93.62
2023-02-11T06:27:40.114Z,93.67
2023-02-11T06:30:09.968Z,93.97
2023-02-11T06:32:44.680Z,94.04
2023-02-11T06:35:12.647Z,93.75
2023-02-11T06:37:40.488Z,93.59
2023-02-11T06:40:07.860Z,94.37
2023-02-11T06:42:36.157Z,94.22
2023-02-11T06:45:05.937Z,94.25
2023-02-11T06:47:32.572Z,93.94
2023-02-11T06:49:59.145Z,94.32
2023-02-11T06:52:25.750Z,93.79
2023-02-11T06:54:52.290Z,94.00
2023-02-11T06:57:18.886Z,94.55
2023-02-11T06:59:45.523Z,94.02
2023-02-11T07:02:12.317Z,94.03
2023-02-11T07:04:41.958Z,94.05
2023-02-11T07:07:08.505Z,94.27
2023-02-11T07:09:35.116Z,94.31
2023-02-11T07:12:01.683Z,94.64
2023-02-11T07:14:28.259Z,94.35
2023-02-11T07:16:54.888Z,94.54
2023-02-11T07:19:21.502Z,94.24
2023-02-11T07:21:48.814Z,94.62
2023-02-11T07:24:15.669Z,94.20
2023-02-11T07:26:42.462Z,94.35
2023-02-11T07:29:09.158Z,94.69
2023-02-11T07:31:35.874Z,94.75
2023-02-11T07:34:02.700Z,94.71
2023-02-11T07:36:31.813Z,94.37
2023-02-11T07:38:58.827Z,94.54
2023-02-11T07:41:26.343Z,94.65
2023-02-11T07:43:53.747Z,94.38
2023-02-11T07:46:23.753Z,94.43
2023-02-11T07:48:51.592Z,94.43
2023-02-11T07:51:22.162Z,94.55
2023-02-11T07:53:48.968Z,94.29
2023-02-11T07:56:17.770Z,94.31
2023-02-11T07:58:44.730Z,94.04
2023-02-11T08:01:15.146Z,94.61
2023-02-11T08:03:42.754Z,94.24
2023-02-11T08:06:15.306Z,94.66
2023-02-11T08:08:42.772Z,94.33
2023-02-11T08:11:12.695Z,94.20
2023-02-11T08:13:39.606Z,94.25
2023-02-11T08:16:07.647Z,94.19
2023-02-11T08:18:35.265Z,93.80
2023-02-11T08:21:09.872Z,94.03
2023-02-11T08:23:38.198Z,94.18
2023-02-11T08:26:08.191Z,94.30
2023-02-11T08:28:40.160Z,94.20
2023-02-11T08:31:08.627Z,94.13
2023-02-11T08:33:35.321Z,94.30
2023-02-11T08:36:08.886Z,93.93
2023-02-11T08:38:35.543Z,94.05
2023-02-11T08:41:02.093Z,94.66
2023-02-11T08:43:28.962Z,94.61
2023-02-11T08:45:55.597Z,94.09
2023-02-11T08:48:22.216Z,94.26
2023-02-11T08:50:48.788Z,94.58
2023-02-11T08:53:15.327Z,93.89
2023-02-11T08:55:48.979Z,94.18
2023-02-11T08:58:18.101Z,94.23
2023-02-11T09:00:46.270Z,94.34
2023-02-11T09:03:15.312Z,94.04
2023-02-11T09:05:47.100Z,94.13
2023-02-11T09:08:14.629Z,94.13
2023-02-11T09:10:41.186Z,93.59
2023-02-11T09:13:08.566Z,93.68
2023-02-11T09:15:35.622Z,93.75
2023-02-11T09:18:03.477Z,93.55
2023-02-11T09:20:30.555Z,93.17
2023-02-11T09:22:59.222Z,93.37
2023-02-11T09:25:26.279Z,93.06
2023-02-11T09:27:53.780Z,93.61
2023-02-11T09:30:21.396Z,93.56
2023-02-11T09:32:48.024Z,93.29
2023-02-11T09:35:14.611Z,93.33
2023-02-11T09:37:41.117Z,93.51
2023-02-11T09:40:08.391Z,93.89
2023-02-11T09:42:50.840Z,93.49
2023-02-11T09:45:22.203Z,92.89
2023-02-11T09:48:05.126Z,92.39
2023-02-11T09:50:38.202Z,92.64
2023-02-11T09:53:17.926Z,92.94
2023-02-11T09:55:48.337Z,92.88
2023-02-11T09:58:21.708Z,91.99
2023-02-11T10:01:23.681Z,92.22
2023-02-11T10:04:05.270Z,92.21
2023-02-11T10:06:43.650Z,92.03
2023-02-11T10:09:37.832Z,91.79
2023-02-11T10:12:45.657Z,91.82
2023-02-11T10:15:32.019Z,91.21
2023-02-11T10:18:32.248Z,91.48
2023-02-11T10:21:37.989Z,90.79
2023-02-11T10:24:12.202Z,91.00
2023-02-11T10:26:40.862Z,90.97
2023-02-11T10:29:19.024Z,91.11
2023-02-11T10:31:47.769Z,89.77
2023-02-11T10:34:15.259Z,89.00
2023-02-11T10:36:44.406Z,89.83
2023-02-11T10:39:24.165Z,89.40
2023-02-11T10:41:57.053Z,89.49
2023-02-11T10:44:33.965Z,88.98
2023-02-11T10:47:09.264Z,89.03
2023-02-11T10:49:42.052Z,88.72
2023-02-11T10:52:17.818Z,88.52
2023-02-11T10:55:05.596Z,88.35
2023-02-11T10:57:49.776Z,88.38
2023-02-11T11:00:39.094Z,88.23
2023-02-11T11:03:20.250Z,88.14
2023-02-11T11:05:59.827Z,88.36
2023-02-11T11:08:48.209Z,88.38
2023-02-11T11:11:24.259Z,89.11
2023-02-11T11:13:53.536Z,88.18
2023-02-11T11:16:24.564Z,88.38
2023-02-11T11:19:13.597Z,87.81
2023-02-11T11:21:47.753Z,87.32
2023-02-11T11:24:19.669Z,86.38
2023-02-11T11:26:54.069Z,86.33
2023-02-11T11:29:57.976Z,86.07
2023-02-11T11:32:29.958Z,85.84
2023-02-11T11:35:02.609Z,86.63
2023-02-11T11:37:38.785Z,86.40
2023-02-11T11:40:10.228Z,86.87
2023-02-11T11:42:39.136Z,85.97
2023-02-11T11:45:22.889Z,85.90
2023-02-11T11:47:52.295Z,85.20
2023-02-11T11:50:35.017Z,84.98
2023-02-11T11:53:24.152Z,84.90
2023-02-11T11:55:59.921Z,85.23
2023-02-11T11:58:30.111Z,84.84
2023-02-11T12:01:30.507Z,85.50
2023-02-11T12:04:21.222Z,84.68
2023-02-11T12:06:57.213Z,84.89
2023-02-11T12:09:33.383Z,85.19
2023-02-11T12:12:26.607Z,85.54
2023-02-11T12:14:53.113Z,84.96
2023-02-11T12:17:37.102Z,85.08
2023-02-11T12:20:27.332Z,85.81
2023-02-11T12:23:04.227Z,85.85
2023-02-11T12:25:55.052Z,85.70
2023-02-11T12:28:40.231Z,85.82
2023-02-11T12:31:44.196Z,85.44
2023-02-11T12:34:38.256Z,85.44
2023-02-11T12:37:26.176Z,85.41
2023-02-11T12:40:11.044Z,85.69
2023-02-11T12:43:01.502Z,84.96
2023-02-11T12:45:42.782Z,85.10
2023-02-11T12:48:25.965Z,84.90
2023-02-11T12:51:09.885Z,84.72
2023-02-11T12:53:49.310Z,83.69
2023-02-11T12:56:26.897Z,83.55
2023-02-11T12:58:58.827Z,85.27
2023-02-11T13:01:33.737Z,83.35
2023-02-11T13:04:09.128Z,84.19
2023-02-11T13:06:42.164Z,84.06
2023-02-11T13:09:19.004Z,83.49
2023-02-11T13:11:51.849Z,83.46
2023-02-11T13:14:35.307Z,83.61
2023-02-11T13:17:13.081Z,83.43
2023-02-11T13:19:50.409Z,83.78
2023-02-11T13:22:24.203Z,82.76
2023-02-11T13:25:07.090Z,83.23
2023-02-11T13:27:46.182Z,82.87
2023-02-11T13:30:27.320Z,83.50
2023-02-11T13:32:53.878Z,83.40
2023-02-11T13:35:37.402Z,82.83
2023-02-11T13:38:25.518Z,82.64
2023-02-11T13:41:02.640Z,82.13
2023-02-11T13:43:33.053Z,82.70
2023-02-11T13:46:11.698Z,81.89
2023-02-11T13:48:47.692Z,83.02
2023-02-11T13:51:18.400Z,81.69
2023-02-11T13:53:50.427Z,82.37
2023-02-11T13:56:30.726Z,82.48
2023-02-11T13:59:01.970Z,82.50
2023-02-11T14:02:07.139Z,82.43
2023-02-11T14:04:52.524Z,82.51
2023-02-11T14:08:11.882Z,83.46
2023-02-11T14:10:40.942Z,83.18
2023-02-11T14:13:29.718Z,82.48
2023-02-11T14:16:31.665Z,82.25
2023-02-11T14:19:02.474Z,82.79
2023-02-11T14:21:29.669Z,82.52
2023-02-11T14:24:02.101Z,82.29
2023-02-11T14:26:43.880Z,82.84
2023-02-11T14:29:33.403Z,83.12
2023-02-11T14:32:27.017Z,83.55
2023-02-11T14:35:15.532Z,83.35
2023-02-11T14:38:07.488Z,83.33
2023-02-11T14:40:55.106Z,82.73
2023-02-11T14:43:31.854Z,83.48
2023-02-11T14:46:01.308Z,84.08
2023-02-11T14:48:32.192Z,83.88
2023-02-11T14:51:06.328Z,84.23
2023-02-11T14:53:35.068Z,83.45
2023-02-11T14:56:01.666Z,82.72
2023-02-11T14:58:32.895Z,83.26
2023-02-11T15:01:06.428Z,83.89
2023-02-11T15:03:37.752Z,83.45
2023-02-11T15:06:07.394Z,83.69
2023-02-11T15:08:38.289Z,83.77
2023-02-11T15:11:12.687Z,83.31
2023-02-11T15:13:39.521Z,83.71
2023-02-11T15:16:11.002Z,83.70
2023-02-11T15:18:43.701Z,83.87
2023-02-11T15:21:10.960Z,83.69
2023-02-11T15:23:39.006Z,83.51
2023-02-11T15:26:13.954Z,83.15
2023-02-11T15:28:52.127Z,84.67
2023-02-11T15:31:23.298Z,84.31
2023-02-11T15:33:51.554Z,84.91
2023-02-11T15:36:23.694Z,83.57
2023-02-11T15:39:16.111Z,83.69
2023-02-11T15:41:44.378Z,84.23
2023-02-11T15:44:32.055Z,84.50
2023-02-11T15:47:00.099Z,83.96
2023-02-11T15:49:27.331Z,84.46
2023-02-11T15:51:57.098Z,85.13
2023-02-11T15:54:29.395Z,84.92
2023-02-11T15:57:04.242Z,84.98
2023-02-11T15:59:41.090Z,84.99
2023-02-11T16:02:30.380Z,84.67
2023-02-11T16:05:26.110Z,84.93
2023-02-11T16:07:52.996Z,85.48
2023-02-11T16:10:29.847Z,85.02
2023-02-11T16:13:08.451Z,85.29
2023-02-11T16:15:35.003Z,84.84
2023-02-11T16:18:13.376Z,85.49
2023-02-11T16:20:40.340Z,85.85
2023-02-11T16:23:08.028Z,85.18
2023-02-11T16:25:35.721Z,85.36
2023-02-11T16:28:02.567Z,86.46
2023-02-11T16:30:32.750Z,86.07
2023-02-11T16:32:59.250Z,86.04
2023-02-11T16:35:26.026Z,85.61
2023-02-11T16:37:52.662Z,86.13
2023-02-11T16:40:19.258Z,85.88
2023-02-11T16:42:45.803Z,85.78
2023-02-11T16:45:12.442Z,86.15
2023-02-11T16:47:42.988Z,86.35
2023-02-11T16:50:19.011Z,86.13
2023-02-11T16:52:46.297Z,85.83
2023-02-11T16:55:13.180Z,86.08
2023-02-11T16:57:40.199Z,86.22
2023-02-11T17:00:08.070Z,86.66
2023-02-11T17:02:37.132Z,86.79
2023-02-11T17:05:07.437Z,86.69
2023-02-11T17:07:34.384Z,86.74
2023-02-11T17:10:01.256Z,86.92
2023-02-11T17:12:28.011Z,86.38
2023-02-11T17:14:54.838Z,86.54
2023-02-11T17:17:23.667Z,86.69
2023-02-11T17:19:51.058Z,86.57
2023-02-11T17:22:18.661Z,86.67
2023-02-11T17:24:45.281Z,86.90
2023-02-11T17:27:12.170Z,87.09
2023-02-11T17:29:38.681Z,87.45
2023-02-11T17:32:05.399Z,87.46
2023-02-11T17:34:32.444Z,87.52
2023-02-11T17:37:00.242Z,87.39
2023-02-11T17:39:27.519Z,87.21
2023-02-11T17:41:54.055Z,87.69
2023-02-11T17:44:20.625Z,86.69
2023-02-11T17:46:47.235Z,87.56
2023-02-11T17:49:13.825Z,87.15
2023-02-11T17:51:40.691Z,87.86
2023-02-11T17:54:14.255Z,87.42
2023-02-11T17:56:42.205Z,87.26
2023-02-11T17:59:10.709Z,86.83
2023-02-11T18:01:39.124Z,87.67
2023-02-11T18:04:06.878Z,88.12
2023-02-11T18:06:34.277Z,87.50
2023-02-11T18:09:02.419Z,87.62
2023-02-11T18:11:30.963Z,87.35
2023-02-11T18:14:02.149Z,87.89
2023-02-11T18:16:30.109Z,87.17
2023-02-11T18:18:58.310Z,87.81
2023-02-11T18:21:25.858Z,87.77
2023-02-11T18:23:52.492Z,88.05
2023-02-11T18:26:21.585Z,87.52
2023-02-11T18:28:48.350Z,87.52
2023-02-11T18:31:14.984Z,87.83
2023-02-11T18:33:42.561Z,88.75
2023-02-11T18:36:13.039Z,87.94
2023-02-11T18:38:40.897Z,88.17
2023-02-11T18:41:07.737Z,88.50
2023-02-11T18:43:35.378Z,88.66
2023-02-11T18:46:06.885Z,88.83
2023-02-11T18:48:33.540Z,88.04
2023-02-11T18:51:00.120Z,88.06
2023-02-11T18:53:26.736Z,88.26
2023-02-11T18:55:53.888Z,88.59
2023-02-11T18:58:21.327Z,88.34
2023-02-11T19:00:51.975Z,88.58
2023-02-11T19:03:18.589Z,88.81
2023-02-11T19:05:48.140Z,88.25
2023-02-11T19:08:15.229Z,88.19
2023-02-11T19:10:44.404Z,88.76
2023-02-11T19:13:10.985Z,88.69
2023-02-11T19:15:45.310Z,88.06
2023-02-11T19:18:13.178Z,89.01
2023-02-11T19:20:42.049Z,88.38
2023-02-11T19:23:08.651Z,88.73
2023-02-11T19:25:35.420Z,89.00
2023-02-11T19:28:03.256Z,89.04
2023-02-11T19:30:30.026Z,88.31
2023-02-11T19:32:57.618Z,88.67
2023-02-11T19:35:25.342Z,88.35
2023-02-11T19:37:51.981Z,88.67
2023-02-11T19:40:21.110Z,88.67
2023-02-11T19:42:47.906Z,88.76
2023-02-11T19:45:14.488Z,88.45
2023-02-11T19:47:41.058Z,88.34
2023-02-11T19:50:08.612Z,89.15
2023-02-11T19:52:38.213Z,88.80
2023-02-11T19:55:05.064Z,88.66
2023-02-11T19:57:31.638Z,88.19
2023-02-11T19:59:58.252Z,87.99
2023-02-11T20:02:24.844Z,88.10
2023-02-11T20:04:51.510Z,87.91
2023-02-11T20:07:18.098Z,88.75
2023-02-11T20:09:44.672Z,88.79
2023-02-11T20:12:12.071Z,88.20
2023-02-11T20:14:38.783Z,88.02
2023-02-11T20:17:05.418Z,88.62
2023-02-11T20:19:32.068Z,87.90
2023-02-11T20:21:58.642Z,88.26
2023-02-11T20:24:25.730Z,88.39
2023-02-11T20:26:55.627Z,88.30
2023-02-11T20:29:23.373Z,88.82
2023-02-11T20:31:50.608Z,88.54
2023-02-11T20:34:18.129Z,88.25
2023-02-11T20:36:51.603Z,88.79
2023-02-11T20:39:19.217Z,88.44
2023-02-11T20:41:46.376Z,88.85
2023-02-11T20:44:13.511Z,88.45
2023-02-11T20:46:43.720Z,88.88
2023-02-11T20:49:12.865Z,88.91
2023-02-11T20:51:39.911Z,88.85
2023-02-11T20:54:07.422Z,88.44
2023-02-11T20:56:36.808Z,88.92
2023-02-11T20:59:04.322Z,88.17
2023-02-11T21:01:37.020Z,88.62
2023-02-11T21:04:19.433Z,88.59
2023-02-11T21:06:49.251Z,88.36
2023-02-11T21:09:25.022Z,88.35
2023-02-11T21:11:53.698Z,88.91
2023-02-11T21:14:22.498Z,88.59
2023-02-11T21:16:49.617Z,88.28
2023-02-11T21:19:16.770Z,88.73
2023-02-11T21:21:43.705Z,89.64
2023-02-11T21:24:11.305Z,88.40
2023-02-11T21:26:39.119Z,88.28
2023-02-11T21:29:07.504Z,88.88
2023-02-11T21:31:35.202Z,89.22
2023-02-11T21:34:01.997Z,88.53
2023-02-11T21:36:29.977Z,88.53
2023-02-11T21:38:56.833Z,89.18
2023-02-11T21:41:24.814Z,88.47
2023-02-11T21:43:52.299Z,88.72
2023-02-11T21:46:20.483Z,88.47
2023-02-11T21:48:47.783Z,88.56
2023-02-11T21:51:20.838Z,88.91
2023-02-11T21:53:47.853Z,89.55
2023-02-11T21:56:17.309Z,88.80
2023-02-11T21:58:45.624Z,88.95
2023-02-11T22:01:21.576Z,88.92
2023-02-11T22:03:48.220Z,89.44
2023-02-11T22:06:18.795Z,89.02
2023-02-11T22:08:45.375Z,89.04
2023-02-11T22:11:13.566Z,88.62
2023-02-11T22:13:41.100Z,89.35
2023-02-11T22:16:11.084Z,88.94
2023-02-11T22:18:38.221Z,89.26
2023-02-11T22:21:08.630Z,89.31
2023-02-11T22:23:36.089Z,89.48
2023-02-11T22:26:28.610Z,88.82
2023-02-11T22:28:55.990Z,88.99
2023-02-11T22:31:28.804Z,89.46
2023-02-11T22:33:56.516Z,89.33
2023-02-11T22:36:26.262Z,89.02
2023-02-11T22:38:53.553Z,89.44
2023-02-11T22:41:21.378Z,89.12
2023-02-11T22:43:48.347Z,89.26
2023-02-11T22:46:18.187Z,89.58
2023-02-11T22:48:45.812Z,89.39
2023-02-11T22:51:19.642Z,89.37
2023-02-11T22:54:01.353Z,89.42
2023-02-11T22:56:30.195Z,89.03
2023-02-11T22:59:01.378Z,89.04
2023-02-11T23:01:29.450Z,89.59
2023-02-11T23:03:56.112Z,89.41
2023-02-11T23:06:22.740Z,89.03
2023-02-11T23:08:49.316Z,89.47
2023-02-11T23:11:19.573Z,89.08
2023-02-11T23:13:48.122Z,89.32
2023-02-11T23:16:19.144Z,89.41
2023-02-11T23:18:47.386Z,89.69
2023-02-11T23:21:24.838Z,90.05
2023-02-11T23:24:01.773Z,89.47
2023-02-11T23:26:28.597Z,89.60
2023-02-11T23:28:57.222Z,89.63
2023-02-11T23:31:26.792Z,89.49
2023-02-11T23:33:53.885Z,89.01
2023-02-11T23:36:22.182Z,89.39
2023-02-11T23:38:48.906Z,89.34
2023-02-11T23:41:16.574Z,89.72
2023-02-11T23:43:43.116Z,89.73
2023-02-11T23:46:10.245Z,89.28
2023-02-11T23:48:37.681Z,89.92
2023-02-11T23:51:04.640Z,89.80
2023-02-11T23:53:31.209Z,89.79
2023-02-11T23:55:57.811Z,89.79
2023-02-11T23:58:24.554Z,89.12
